Battle Creek, MI

2:26 PM EDT on August 29, 2016 (GMT -0400)
Shark City | | Change Station

Elev 940 ft 42.25 °N, 84.73 °W | Updated 17 seconds ago

Partly Cloudy
Partly Cloudy
83.0 °F
Feels Like 85 °F
N
9.0
Wind Variable Wind from South
Gusts 11.0 mph

Today
High -- | Low -- °F
--% Chance of Precip.
Yesterday
High -- | Low -- °F
Precip. -- in
Pressure 30.28 in
Visibility 10.0 miles
Clouds Few 3200 ft
Heat Index 85 °F
Dew Point 64.6 °F
Humidity 54%
Rainfall 0.00 in
Snow Depth Not available.
7:03 AM 8:18 PM
Waning Crescent, 7% visible
SPECI KBTL 291808Z 13007KT 10SM FEW032 27/21 A3028 RMK AO2 T02670206
Pressure 30.28 in
Visibility 10.0 miles
Clouds Few 3200 ft
Heat Index 85 °F
Dew Point 64.6 °F
Humidity 54%
Rainfall 0.00 in
Snow Depth Not available.
7:03 AM 8:18 PM
Waning Crescent, 7% visible
SPECI KBTL 291808Z 13007KT 10SM FEW032 27/21 A3028 RMK AO2 T02670206

10-Day Weather Forecast

Almanac

Astronomy

Aug. 29, 2016 Rise Set
Actual Time
Civil Twilight
Nautical Twilight
Astronomical Twilight
Moon
Length of Visible Light
Length of Day
Tomorrow will be .
, % of the Moon is Illuminated

Today's Extremes

State Highs State Lows

Community

WunderPhotos

Upload Photos

1,935,684 photos uploaded!

WunderBlog® & News

Nearby

Air Quality

  Air Quality AQ Index Pollutant
Not available.

Snow Depth

Station Depth Elevation

Earthquake Activity

City Distance Mag. Time & Date
Minimum magnitude displayed is 2.5.

Coastal Water Temperatures

Place Temperature

Stations

Nearby Weather Stations

Station Location Temp. Windchill Dew Point Humidity Wind Precip. Elev Updated Type
                   

Watches & Warnings

There are currently no watches in effect.